Winnisquam, New Hampshire
Current Conditions -  °F | °C
As of 4:51 PM on Friday 26 Dec 2014 (Local Time) from KCON Reporting Station
Clear Clear  
Wind Chill: 36°   Ceiling: Unl
Heat Index: 41°   Visibility: 10mi
Dew Point: 27°   Wind: 7mph
Humidity: 57%   Direction: 320°NW
Pressure: 30.09"   Gusts: NA
Location:  43.5°N, 71.51°W
Report Text: KCON 262151Z AUTO 32006KT 10SM CLR 05/M03 A3009 RMK AO2 SLP192 T00501028
Loading
Personal Weather Stations






























Interactive Weather Map New forecast layout! Learn more

10-Day Weather Forecast

Advertisements
Track Severe Weather on mobile